Time;durP1;ratioP1;P1;durP2;ratioP2;P2;SDS_P1;SDS_P2;PMS_P1;PMS_P2;Temp;Humidity;BMP_temperature;BMP_pressure;BME280_temperature;BME280_humidity;BME280_pressure;Samples;Min_cycle;Max_cycle;Signal;HPM_P1;HPM_P2
2023/12/16 00:02:52;;;;;;;32.90;18.03;;;6.20;84.70;;;;;;6270902;28;20322;-79
2023/12/16 00:05:55;;;;;;;35.53;17.77;;;6.30;84.50;;;;;;6286541;28;20260;-78
2023/12/16 00:09:00;;;;;;;31.63;17.33;;;6.20;84.40;;;;;;6264866;28;20828;-79
2023/12/16 00:12:04;;;;;;;35.90;18.43;;;6.20;84.50;;;;;;6289640;28;20240;-78
2023/12/16 00:15:11;;;;;;;38.40;17.77;;;6.20;84.40;;;;;;6270049;28;20346;-80
2023/12/16 00:18:14;;;;;;;33.30;16.90;;;6.20;84.60;;;;;;6267856;28;20321;-80
2023/12/16 00:21:17;;;;;;;32.43;17.60;;;6.20;84.50;;;;;;6275841;28;20232;-81
2023/12/16 00:24:22;;;;;;;33.17;17.47;;;6.20;84.30;;;;;;6286371;28;20230;-79
2023/12/16 00:27:25;;;;;;;35.20;18.47;;;6.20;84.50;;;;;;6281597;28;20272;-81
2023/12/16 00:30:28;;;;;;;39.40;18.20;;;6.20;84.50;;;;;;6285484;28;20237;-79
2023/12/16 00:33:33;;;;;;;35.97;20.47;;;6.20;84.60;;;;;;6278792;28;20236;-77
2023/12/16 00:36:37;;;;;;;41.03;19.40;;;6.20;84.50;;;;;;6283736;28;20844;-78
2023/12/16 00:39:41;;;;;;;38.20;19.87;;;6.30;84.50;;;;;;6267104;28;20314;-79
2023/12/16 00:42:44;;;;;;;41.27;19.53;;;6.30;84.20;;;;;;6286769;28;20232;-79
2023/12/16 00:45:47;;;;;;;35.50;19.33;;;6.30;84.20;;;;;;6280653;28;20257;-79
2023/12/16 00:48:50;;;;;;;37.93;18.90;;;6.40;84.00;;;;;;6268851;28;20251;-79
2023/12/16 00:51:53;;;;;;;33.83;19.07;;;6.40;84.10;;;;;;6276129;28;20229;-78
2023/12/16 00:54:58;;;;;;;42.17;19.47;;;6.40;84.20;;;;;;6285765;28;20771;-79
2023/12/16 00:58:01;;;;;;;42.07;19.60;;;6.40;84.40;;;;;;6278643;28;20617;-79
2023/12/16 01:01:04;;;;;;;41.33;20.93;;;6.30;84.40;;;;;;6286230;28;20230;-80
2023/12/16 01:04:07;;;;;;;46.03;20.53;;;6.30;84.50;;;;;;6278234;28;20237;-79
2023/12/16 01:07:11;;;;;;;44.03;19.93;;;6.20;84.60;;;;;;6277965;28;20788;-78
2023/12/16 01:10:15;;;;;;;42.90;19.70;;;6.30;84.50;;;;;;6285631;28;20387;-79
2023/12/16 01:13:18;;;;;;;37.87;19.77;;;6.30;84.40;;;;;;6285277;28;20229;-80
2023/12/16 01:16:21;;;;;;;31.63;18.83;;;6.30;84.10;;;;;;6270482;28;20240;-80
2023/12/16 01:19:25;;;;;;;36.53;17.97;;;6.30;84.10;;;;;;6275617;28;20257;-79
2023/12/16 01:22:28;;;;;;;33.33;17.90;;;6.40;84.00;;;;;;6279513;28;20259;-80
2023/12/16 01:25:33;;;;;;;37.77;18.67;;;6.40;83.90;;;;;;6275566;28;20235;-77
2023/12/16 01:28:35;;;;;;;38.97;19.33;;;6.30;83.90;;;;;;6285424;28;20264;-79
2023/12/16 01:31:38;;;;;;;36.60;19.17;;;6.30;83.90;;;;;;6281161;28;20324;-80
2023/12/16 01:34:41;;;;;;;34.17;18.37;;;6.30;83.90;;;;;;6277437;28;20229;-79
2023/12/16 01:37:45;;;;;;;38.60;17.53;;;6.30;84.00;;;;;;6276786;28;20229;-80
2023/12/16 01:40:49;;;;;;;34.03;17.20;;;6.30;84.00;;;;;;6284928;28;20599;-79
2023/12/16 01:43:52;;;;;;;31.20;17.17;;;6.40;83.70;;;;;;6273631;28;20256;-79
2023/12/16 01:46:56;;;;;;;32.33;17.83;;;6.30;83.80;;;;;;6279879;28;20237;-80
2023/12/16 01:49:59;;;;;;;42.27;18.47;;;6.30;83.80;;;;;;6276796;28;20234;-81
2023/12/16 01:53:04;;;;;;;38.53;17.73;;;6.30;83.80;;;;;;6275408;28;20248;-78
2023/12/16 01:56:09;;;;;;;30.67;17.20;;;6.30;83.90;;;;;;6276523;28;20306;-80
2023/12/16 01:59:12;;;;;;;33.10;17.50;;;6.30;83.90;;;;;;6279604;28;20275;-79
2023/12/16 02:02:16;;;;;;;40.30;17.60;;;6.30;83.80;;;;;;6277747;28;20322;-80
2023/12/16 02:05:20;;;;;;;37.87;18.67;;;6.40;83.70;;;;;;6287589;28;20236;-79
2023/12/16 02:08:24;;;;;;;33.53;18.30;;;6.40;83.60;;;;;;6274310;28;20292;-80
2023/12/16 02:11:28;;;;;;;38.97;16.93;;;6.40;83.60;;;;;;6280289;28;20241;-79
2023/12/16 02:14:32;;;;;;;31.37;16.77;;;6.40;83.50;;;;;;6283202;28;20311;-78
2023/12/16 02:17:35;;;;;;;31.70;16.97;;;6.40;83.50;;;;;;6289348;28;20882;-79
2023/12/16 02:20:39;;;;;;;32.53;16.63;;;6.50;83.20;;;;;;6288322;28;20229;-79
2023/12/16 02:23:43;;;;;;;34.77;16.97;;;6.50;83.10;;;;;;6290006;28;20235;-79
2023/12/16 02:26:47;;;;;;;29.13;16.93;;;6.50;83.00;;;;;;6284761;28;20232;-79
2023/12/16 02:29:50;;;;;;;35.30;17.27;;;6.50;83.20;;;;;;6270473;28;20268;-80
2023/12/16 02:32:55;;;;;;;26.77;16.57;;;6.40;83.30;;;;;;6284779;28;20365;-80
2023/12/16 02:36:00;;;;;;;34.80;16.50;;;6.50;83.20;;;;;;6287024;28;20786;-79
2023/12/16 02:39:05;;;;;;;30.63;16.83;;;6.50;82.90;;;;;;6281457;28;20731;-79
2023/12/16 02:42:08;;;;;;;27.80;15.60;;;6.50;83.00;;;;;;6288699;28;20264;-79
2023/12/16 02:45:12;;;;;;;28.73;16.17;;;6.40;83.10;;;;;;6273731;28;20286;-79
2023/12/16 02:48:15;;;;;;;39.33;17.87;;;6.40;83.30;;;;;;6273908;28;20229;-80
2023/12/16 02:51:19;;;;;;;28.83;16.13;;;6.40;83.30;;;;;;6286925;28;20287;-79
2023/12/16 02:54:24;;;;;;;31.10;16.57;;;6.40;83.20;;;;;;6280149;28;20859;-79
2023/12/16 02:57:27;;;;;;;28.00;16.33;;;6.50;82.90;;;;;;6281606;28;20237;-78
2023/12/16 03:00:30;;;;;;;32.83;17.17;;;6.50;82.80;;;;;;6285873;28;20328;-79
2023/12/16 03:03:33;;;;;;;33.93;18.17;;;6.40;82.90;;;;;;6273355;28;20285;-79
2023/12/16 03:06:36;;;;;;;31.10;17.63;;;6.40;82.90;;;;;;6283395;28;20864;-80
2023/12/16 03:09:41;;;;;;;31.93;17.30;;;6.40;83.20;;;;;;6284419;28;20741;-80
2023/12/16 03:12:45;;;;;;;32.67;17.93;;;6.40;83.20;;;;;;6282628;28;20229;-78
2023/12/16 03:15:49;;;;;;;30.57;17.30;;;6.40;83.20;;;;;;6288586;28;20236;-80
2023/12/16 03:18:52;;;;;;;31.90;17.50;;;6.40;83.10;;;;;;6288504;28;20229;-79
2023/12/16 03:21:55;;;;;;;37.07;18.30;;;6.40;83.20;;;;;;6280995;28;20230;-79
2023/12/16 03:24:59;;;;;;;34.87;18.93;;;6.40;83.20;;;;;;6286528;28;20233;-80
2023/12/16 03:28:03;;;;;;;34.40;18.53;;;6.50;83.20;;;;;;6271373;28;20349;-77
2023/12/16 03:31:06;;;;;;;34.03;17.47;;;6.50;83.10;;;;;;6276945;28;20229;-80
2023/12/16 03:34:10;;;;;;;38.27;19.23;;;6.50;83.20;;;;;;6279675;28;20566;-80
2023/12/16 03:37:14;;;;;;;41.87;19.33;;;6.50;83.20;;;;;;6277969;28;20294;-80
2023/12/16 03:40:18;;;;;;;30.27;18.97;;;6.50;83.30;;;;;;6286432;28;20237;-79
2023/12/16 03:43:22;;;;;;;39.90;19.83;;;6.50;83.40;;;;;;6279003;28;20241;-80
2023/12/16 03:46:25;;;;;;;38.07;21.33;;;6.50;83.30;;;;;;6267925;28;20233;-79
2023/12/16 03:49:29;;;;;;;36.57;21.50;;;6.50;83.40;;;;;;6275412;28;20252;-80
2023/12/16 03:52:32;;;;;;;34.40;20.17;;;6.60;83.30;;;;;;6280347;28;20231;-79
2023/12/16 03:55:37;;;;;;;33.77;19.77;;;6.50;83.40;;;;;;6280276;28;20387;-80
2023/12/16 03:58:40;;;;;;;34.57;20.60;;;6.50;83.50;;;;;;6283149;28;20749;-79
2023/12/16 04:01:45;;;;;;;38.23;20.27;;;6.50;83.50;;;;;;6269306;28;20335;-80
2023/12/16 04:04:48;;;;;;;34.73;20.60;;;6.50;83.40;;;;;;6273623;28;20249;-79
2023/12/16 04:07:51;;;;;;;39.47;21.93;;;6.60;83.40;;;;;;6269863;28;20286;-79
2023/12/16 04:10:55;;;;;;;35.40;22.07;;;6.60;83.40;;;;;;6286758;28;20251;-79
2023/12/16 04:13:58;;;;;;;38.67;21.80;;;6.60;83.30;;;;;;6286401;28;20763;-78
2023/12/16 04:17:02;;;;;;;46.73;21.97;;;6.60;83.20;;;;;;6279072;28;20243;-80
2023/12/16 04:20:06;;;;;;;35.37;21.60;;;6.50;83.30;;;;;;6278765;28;20229;-78
2023/12/16 04:23:09;;;;;;;44.67;22.27;;;6.50;83.40;;;;;;6277588;28;20229;-80
2023/12/16 04:26:14;;;;;;;38.17;22.43;;;6.50;83.40;;;;;;6273904;28;20260;-80
2023/12/16 04:29:17;;;;;;;37.33;21.43;;;6.60;83.40;;;;;;6280999;28;20245;-79
2023/12/16 04:32:21;;;;;;;40.67;22.17;;;6.60;83.20;;;;;;6264021;28;20248;-80
2023/12/16 04:35:24;;;;;;;40.00;20.33;;;6.60;83.00;;;;;;6285195;28;20697;-80
2023/12/16 04:38:27;;;;;;;34.10;20.57;;;6.60;83.10;;;;;;6282430;28;20317;-80
2023/12/16 04:41:34;;;;;;;39.03;20.63;;;6.60;83.00;;;;;;6284818;28;20833;-80
2023/12/16 04:44:38;;;;;;;42.17;20.07;;;6.50;83.00;;;;;;6270610;28;20493;-80
2023/12/16 04:47:41;;;;;;;38.33;22.13;;;6.50;82.90;;;;;;6277926;28;20253;-79
2023/12/16 04:50:44;;;;;;;39.83;21.83;;;6.50;82.90;;;;;;6281730;28;20233;-79
2023/12/16 04:53:48;;;;;;;37.33;21.80;;;6.50;83.10;;;;;;6283142;28;20233;-79
2023/12/16 04:56:52;;;;;;;37.03;20.23;;;6.50;83.00;;;;;;6278261;28;20323;-80
2023/12/16 04:59:55;;;;;;;41.20;22.77;;;6.50;82.90;;;;;;6280059;28;20256;-79
2023/12/16 05:02:59;;;;;;;43.47;21.97;;;6.50;83.00;;;;;;6276469;28;20727;-79
2023/12/16 05:06:02;;;;;;;39.07;22.13;;;6.50;82.90;;;;;;6277890;28;20298;-80
2023/12/16 05:09:08;;;;;;;39.07;21.97;;;6.50;82.90;;;;;;6276703;28;20229;-79
2023/12/16 05:12:13;;;;;;;43.87;22.27;;;6.50;82.80;;;;;;6277729;28;20312;-79
2023/12/16 05:15:16;;;;;;;37.23;21.43;;;6.40;82.90;;;;;;6283192;28;20323;-80
2023/12/16 05:18:19;;;;;;;36.47;20.97;;;6.40;83.00;;;;;;6274887;28;20276;-80
2023/12/16 05:21:22;;;;;;;42.00;22.80;;;6.40;82.90;;;;;;6280682;28;20241;-79
2023/12/16 05:24:25;;;;;;;35.27;19.73;;;6.40;82.90;;;;;;6279539;28;20332;-80
2023/12/16 05:27:30;;;;;;;38.50;21.37;;;6.30;82.90;;;;;;6280123;28;20318;-80
2023/12/16 05:30:33;;;;;;;36.40;20.10;;;6.30;82.90;;;;;;6277817;28;20240;-79
2023/12/16 05:33:36;;;;;;;43.63;21.20;;;6.30;83.00;;;;;;6280948;28;20297;-79
2023/12/16 05:36:40;;;;;;;33.27;19.93;;;6.20;82.90;;;;;;6285139;28;20226;-80
2023/12/16 05:39:43;;;;;;;35.43;20.17;;;6.20;83.00;;;;;;6285019;28;20303;-78
2023/12/16 05:42:48;;;;;;;38.10;19.53;;;6.10;83.10;;;;;;6280076;28;20316;-78
2023/12/16 05:45:51;;;;;;;35.67;20.03;;;6.10;83.10;;;;;;6289422;28;20391;-79
2023/12/16 05:48:56;;;;;;;35.77;18.70;;;6.10;83.10;;;;;;6284066;28;20226;-80
2023/12/16 05:52:01;;;;;;;38.30;20.13;;;6.10;83.00;;;;;;6281569;28;20609;-80
2023/12/16 05:55:05;;;;;;;30.20;18.33;;;6.10;83.10;;;;;;6280437;28;20240;-80
2023/12/16 05:58:10;;;;;;;32.97;18.27;;;6.10;82.90;;;;;;6287685;28;20239;-78
2023/12/16 06:01:19;;;;;;;32.27;18.03;;;6.10;82.90;;;;;;6273294;28;20260;-81
2023/12/16 06:04:22;;;;;;;40.97;18.20;;;6.10;82.80;;;;;;6282980;28;20341;-78
2023/12/16 06:07:26;;;;;;;33.67;18.10;;;6.10;82.80;;;;;;6291118;28;20243;-82
2023/12/16 06:10:29;;;;;;;29.63;16.93;;;6.10;82.50;;;;;;6284322;28;20751;-78
2023/12/16 06:13:33;;;;;;;32.43;17.10;;;6.10;82.50;;;;;;6284799;28;20237;-79
2023/12/16 06:16:36;;;;;;;33.67;18.63;;;6.20;82.40;;;;;;6287943;28;20233;-79
2023/12/16 06:19:39;;;;;;;28.50;17.17;;;6.20;82.20;;;;;;6286767;28;20245;-80
2023/12/16 06:22:42;;;;;;;26.73;16.77;;;6.30;81.80;;;;;;6277156;28;20233;-79
2023/12/16 06:25:45;;;;;;;30.23;16.33;;;6.30;81.50;;;;;;6280663;28;20378;-79
2023/12/16 06:28:50;;;;;;;34.83;16.43;;;6.30;81.60;;;;;;6271663;28;20255;-80
2023/12/16 06:31:53;;;;;;;31.30;15.57;;;6.30;81.50;;;;;;6266861;28;20249;-81
2023/12/16 06:34:56;;;;;;;29.10;15.60;;;6.30;81.40;;;;;;6282735;28;20714;-78
2023/12/16 06:37:59;;;;;;;28.33;15.03;;;6.30;81.40;;;;;;6277100;28;20271;-82
2023/12/16 06:41:03;;;;;;;25.13;15.73;;;6.40;81.10;;;;;;6278362;28;20240;-81
2023/12/16 06:44:08;;;;;;;29.87;15.03;;;6.40;80.90;;;;;;6277949;28;20233;-81
2023/12/16 06:47:11;;;;;;;24.33;14.43;;;6.40;80.80;;;;;;6276033;28;20226;-81
2023/12/16 06:50:14;;;;;;;32.63;14.07;;;6.40;80.70;;;;;;6287220;28;20268;-80
2023/12/16 06:53:17;;;;;;;23.27;13.47;;;6.40;80.80;;;;;;6288733;28;20228;-82
2023/12/16 06:56:21;;;;;;;24.17;13.73;;;6.40;80.60;;;;;;6289935;28;20236;-80
2023/12/16 06:59:25;;;;;;;28.77;14.57;;;6.40;80.40;;;;;;6278618;28;20226;-80
2023/12/16 07:02:28;;;;;;;25.47;14.60;;;6.40;80.50;;;;;;6278132;28;20304;-79
2023/12/16 07:05:33;;;;;;;20.70;13.07;;;6.40;80.30;;;;;;6282480;28;20321;-81
2023/12/16 07:08:37;;;;;;;25.60;13.13;;;6.40;80.40;;;;;;6285040;28;20280;-80
2023/12/16 07:11:40;;;;;;;22.00;14.07;;;6.40;80.30;;;;;;6288565;28;20241;-79
2023/12/16 07:14:44;;;;;;;23.10;12.50;;;6.40;80.10;;;;;;6286404;28;20242;-80
2023/12/16 07:17:48;;;;;;;23.30;12.53;;;6.50;79.70;;;;;;6279157;28;20241;-79
2023/12/16 07:20:51;;;;;;;24.00;13.20;;;6.50;79.70;;;;;;6287493;28;20264;-79
2023/12/16 07:23:54;;;;;;;19.63;12.33;;;6.50;79.50;;;;;;6274203;28;20872;-81
2023/12/16 07:26:57;;;;;;;30.27;12.63;;;6.50;79.30;;;;;;6274848;28;20763;-80
2023/12/16 07:30:02;;;;;;;20.67;11.70;;;6.60;79.00;;;;;;6279994;28;20241;-82
2023/12/16 07:33:05;;;;;;;21.00;11.57;;;6.60;79.00;;;;;;6283945;28;20230;-79
2023/12/16 07:36:10;;;;;;;22.93;12.33;;;6.60;79.00;;;;;;6282675;28;21301;-80
2023/12/16 07:39:14;;;;;;;26.03;12.17;;;6.60;78.80;;;;;;6283773;28;20233;-79
2023/12/16 07:42:17;;;;;;;19.07;11.70;;;6.60;78.70;;;;;;6279174;28;20525;-80
2023/12/16 07:45:22;;;;;;;25.27;12.30;;;6.50;78.70;;;;;;6279058;28;20777;-79
2023/12/16 07:48:25;;;;;;;21.60;11.50;;;6.60;78.30;;;;;;6278994;28;20229;-79
2023/12/16 07:51:28;;;;;;;28.00;13.17;;;6.60;78.10;;;;;;6279641;28;20233;-78
2023/12/16 07:54:33;;;;;;;21.87;12.90;;;6.60;77.90;;;;;;6280184;28;20291;-79
2023/12/16 07:57:38;;;;;;;20.73;11.13;;;6.60;77.90;;;;;;6282399;28;20234;-81
2023/12/16 08:00:43;;;;;;;23.93;11.73;;;6.60;78.00;;;;;;6282625;28;20234;-81
2023/12/16 08:03:47;;;;;;;17.03;11.80;;;6.60;77.70;;;;;;6285810;28;20645;-80
2023/12/16 08:06:51;;;;;;;20.90;10.97;;;6.70;77.50;;;;;;6283751;28;20259;-79
2023/12/16 08:09:54;;;;;;;16.97;10.70;;;6.60;77.40;;;;;;6282315;28;20243;-81
2023/12/16 08:12:57;;;;;;;19.77;10.23;;;6.60;77.20;;;;;;6278022;28;20782;-79
2023/12/16 08:16:04;;;;;;;22.77;10.50;;;6.70;77.30;;;;;;6279651;28;20241;-79
2023/12/16 08:19:07;;;;;;;18.00;10.47;;;6.70;76.60;;;;;;6279373;28;20238;-79
2023/12/16 08:22:10;;;;;;;17.37;10.70;;;6.70;76.40;;;;;;6282862;28;20240;-80
2023/12/16 08:25:14;;;;;;;16.87;9.90;;;6.80;76.30;;;;;;6280335;28;20234;-79
2023/12/16 08:28:17;;;;;;;16.50;9.30;;;6.80;75.90;;;;;;6278054;28;20228;-80
2023/12/16 08:31:21;;;;;;;17.23;9.93;;;6.80;76.00;;;;;;6286222;28;20321;-80
2023/12/16 08:34:25;;;;;;;13.40;9.43;;;6.80;75.50;;;;;;6271067;28;20252;-77
2023/12/16 08:37:28;;;;;;;16.50;9.47;;;6.80;75.30;;;;;;6278939;28;20729;-79
2023/12/16 08:40:31;;;;;;;19.87;9.53;;;6.80;75.10;;;;;;6264335;28;20230;-79
2023/12/16 08:43:35;;;;;;;15.93;9.27;;;6.90;74.80;;;;;;6283483;28;20980;-81
2023/12/16 08:46:43;;;;;;;19.03;9.33;;;6.90;74.50;;;;;;6282054;28;20738;-78
2023/12/16 08:49:46;;;;;;;24.53;9.70;;;7.00;74.40;;;;;;6285629;28;20233;-79
2023/12/16 08:52:49;;;;;;;9.70;8.30;;;7.00;74.50;;;;;;6282444;28;20725;-77
2023/12/16 08:55:52;;;;;;;15.87;8.43;;;6.90;74.30;;;;;;6283112;28;20334;-75
2023/12/16 08:58:55;;;;;;;15.80;8.87;;;7.00;73.90;;;;;;6269030;28;20295;-77
2023/12/16 09:02:00;;;;;;;13.97;8.50;;;7.00;73.70;;;;;;6277580;28;20321;-77
2023/12/16 09:05:03;;;;;;;18.87;8.17;;;7.00;73.40;;;;;;6277834;28;20741;-77
2023/12/16 09:08:06;;;;;;;14.90;8.00;;;7.20;73.10;;;;;;6270773;28;20324;-77
2023/12/16 09:11:10;;;;;;;13.30;7.53;;;7.10;72.80;;;;;;6279250;28;20272;-77
2023/12/16 09:14:14;;;;;;;15.73;7.67;;;7.20;72.50;;;;;;6278735;28;20302;-75
2023/12/16 09:17:19;;;;;;;8.70;7.37;;;7.20;72.50;;;;;;6274640;28;20244;-77
2023/12/16 09:20:21;;;;;;;9.57;7.23;;;7.20;72.50;;;;;;6279648;28;20721;-77
2023/12/16 09:23:25;;;;;;;11.37;7.53;;;7.20;72.00;;;;;;6284673;28;20316;-78
2023/12/16 09:26:28;;;;;;;10.17;7.33;;;7.20;72.00;;;;;;6281631;28;20233;-77
2023/12/16 09:29:31;;;;;;;12.60;6.60;;;7.20;71.90;;;;;;6276395;28;20233;-76
2023/12/16 09:32:36;;;;;;;11.83;6.70;;;7.20;71.50;;;;;;6274032;28;20399;-76
2023/12/16 09:35:39;;;;;;;9.87;6.70;;;7.20;71.50;;;;;;6267525;28;20333;-76
2023/12/16 09:38:42;;;;;;;8.63;6.90;;;7.20;71.60;;;;;;6266825;28;20311;-77
2023/12/16 09:41:48;;;;;;;13.57;7.20;;;7.20;71.70;;;;;;6281701;28;20370;-78
2023/12/16 09:44:57;;;;;;;9.63;6.33;;;7.30;71.20;;;;;;6280010;28;20333;-74
2023/12/16 09:48:01;;;;;;;11.33;6.53;;;7.30;71.20;;;;;;6272843;28;20252;-75
2023/12/16 09:51:05;;;;;;;10.70;6.20;;;7.30;70.90;;;;;;6288972;28;20237;-77
2023/12/16 09:54:08;;;;;;;10.80;6.27;;;7.40;70.50;;;;;;6284596;28;20857;-75
2023/12/16 09:57:14;;;;;;;10.37;6.20;;;7.50;70.50;;;;;;6281263;28;20324;-76
2023/12/16 10:00:19;;;;;;;11.33;5.93;;;7.50;70.60;;;;;;6264703;28;20730;-77
2023/12/16 10:03:24;;;;;;;12.80;5.90;;;7.50;70.50;;;;;;6242892;28;20918;-79
2023/12/16 10:06:27;;;;;;;11.27;6.00;;;7.50;70.40;;;;;;6279214;28;20233;-76
2023/12/16 10:09:30;;;;;;;7.87;5.60;;;7.70;69.80;;;;;;6256926;28;20221;-77
2023/12/16 10:12:35;;;;;;;12.70;6.30;;;7.70;69.80;;;;;;6263828;28;20252;-76
2023/12/16 10:15:38;;;;;;;11.87;6.03;;;7.70;69.90;;;;;;6278126;28;20229;-78
2023/12/16 10:19:07;;;;;;;10.03;6.33;;;7.60;69.40;;;;;;6258629;28;20660;-75
2023/12/16 10:22:11;;;;;;;13.90;5.93;;;7.70;69.40;;;;;;6286952;28;20736;-74
2023/12/16 10:25:17;;;;;;;12.40;6.33;;;7.70;69.20;;;;;;6277401;28;20247;-78
2023/12/16 10:28:20;;;;;;;13.50;6.07;;;7.70;69.00;;;;;;6276779;28;20877;-77
2023/12/16 10:31:24;;;;;;;9.50;5.50;;;7.80;69.20;;;;;;6284572;28;20237;-76
2023/12/16 10:34:30;;;;;;;11.67;6.33;;;7.80;68.90;;;;;;6279339;28;20242;-77
2023/12/16 10:37:34;;;;;;;12.53;6.77;;;7.80;68.90;;;;;;6283187;28;20221;-78
2023/12/16 10:40:37;;;;;;;13.60;6.30;;;8.00;68.40;;;;;;6279383;28;20287;-78
2023/12/16 10:43:41;;;;;;;12.23;6.30;;;8.00;68.50;;;;;;6278077;28;20294;-76
2023/12/16 10:46:46;;;;;;;10.90;6.00;;;8.10;68.00;;;;;;6281335;28;20246;-75
2023/12/16 10:49:51;;;;;;;10.67;6.27;;;8.10;68.40;;;;;;6284785;28;20237;-77
2023/12/16 10:52:57;;;;;;;11.47;5.70;;;8.10;68.10;;;;;;6282704;28;20755;-76
2023/12/16 10:56:03;;;;;;;7.20;5.50;;;8.10;67.90;;;;;;6283830;28;20241;-77
2023/12/16 10:59:10;;;;;;;11.27;6.10;;;8.10;67.90;;;;;;6283303;28;20238;-77
2023/12/16 11:02:22;;;;;;;14.77;6.40;;;8.10;67.80;;;;;;6280377;28;20322;-76
2023/12/16 11:05:34;;;;;;;10.67;5.93;;;8.10;68.00;;;;;;6275684;28;20656;-78
2023/12/16 11:08:38;;;;;;;13.03;6.10;;;8.10;68.10;;;;;;6273494;28;20238;-77
2023/12/16 11:11:43;;;;;;;9.13;6.20;;;8.20;68.00;;;;;;6283422;28;20538;-77
2023/12/16 11:14:47;;;;;;;11.60;5.47;;;8.20;67.90;;;;;;6278374;28;20238;-77
2023/12/16 11:18:00;;;;;;;10.43;5.67;;;8.30;67.60;;;;;;6283356;28;20237;-75
2023/12/16 11:21:12;;;;;;;11.70;5.77;;;8.40;67.00;;;;;;6288341;28;20230;-78
2023/12/16 11:24:16;;;;;;;10.47;5.70;;;8.40;67.20;;;;;;6281134;28;20229;-78
2023/12/16 11:27:20;;;;;;;12.67;6.10;;;8.40;67.20;;;;;;6284049;28;20265;-78
2023/12/16 11:30:24;;;;;;;9.00;5.63;;;8.30;67.30;;;;;;6281496;28;20229;-75
2023/12/16 11:33:43;;;;;;;8.77;6.37;;;8.50;67.00;;;;;;6284000;28;20250;-76
2023/12/16 11:36:52;;;;;;;13.93;5.70;;;8.50;67.00;;;;;;6266060;28;20308;-77
2023/12/16 11:39:55;;;;;;;11.40;5.70;;;8.40;66.60;;;;;;6283327;28;20222;-76
2023/12/16 11:43:02;;;;;;;9.17;5.63;;;8.20;67.20;;;;;;6281212;28;20276;-78
2023/12/16 11:46:06;;;;;;;12.07;6.00;;;8.10;67.30;;;;;;6275200;28;20237;-77
2023/12/16 11:49:10;;;;;;;8.37;5.63;;;8.20;67.50;;;;;;6282405;28;20246;-75
2023/12/16 11:52:16;;;;;;;9.30;6.83;;;8.30;67.10;;;;;;6282568;28;20245;-76
2023/12/16 11:55:20;;;;;;;12.43;5.80;;;8.20;67.20;;;;;;6278145;28;20248;-76
2023/12/16 11:58:25;;;;;;;11.00;6.27;;;8.20;67.40;;;;;;6277967;28;20371;-77
2023/12/16 12:01:28;;;;;;;11.90;6.17;;;8.20;67.20;;;;;;6268757;28;20249;-78
2023/12/16 12:04:31;;;;;;;9.60;5.60;;;8.30;67.30;;;;;;6275288;28;20238;-77
2023/12/16 12:07:36;;;;;;;11.70;5.80;;;8.30;67.00;;;;;;6278298;28;20261;-78
2023/12/16 12:10:39;;;;;;;12.30;5.30;;;8.20;67.30;;;;;;6277007;28;20230;-75
2023/12/16 12:13:42;;;;;;;12.97;5.93;;;8.20;67.30;;;;;;6284488;28;20229;-78
2023/12/16 12:16:46;;;;;;;7.67;5.80;;;8.20;67.20;;;;;;6283162;28;20236;-78
2023/12/16 12:19:49;;;;;;;14.13;6.00;;;8.10;67.70;;;;;;6286028;28;20841;-77
2023/12/16 12:22:54;;;;;;;10.10;6.30;;;8.10;67.40;;;;;;6282163;28;20229;-76
2023/12/16 12:25:57;;;;;;;13.47;6.40;;;8.20;67.20;;;;;;6273751;28;20240;-76
2023/12/16 12:29:01;;;;;;;10.30;6.27;;;8.20;67.30;;;;;;6281392;28;20222;-77
2023/12/16 12:32:07;;;;;;;13.63;5.90;;;8.20;67.40;;;;;;6279067;28;20360;-78
2023/12/16 12:35:11;;;;;;;11.63;6.00;;;8.20;67.40;;;;;;6277971;28;20240;-78
2023/12/16 12:38:19;;;;;;;6.27;5.17;;;8.20;67.50;;;;;;6284452;28;20241;-78
2023/12/16 12:41:22;;;;;;;10.70;5.57;;;8.20;67.50;;;;;;6278303;28;20317;-77
2023/12/16 12:44:26;;;;;;;11.57;6.03;;;8.10;67.50;;;;;;6285644;28;20249;-76
2023/12/16 12:47:29;;;;;;;8.77;5.77;;;8.20;67.10;;;;;;6285055;28;20616;-76
2023/12/16 12:50:33;;;;;;;8.93;6.00;;;8.10;67.80;;;;;;6274204;28;20237;-74
2023/12/16 12:53:38;;;;;;;13.30;5.43;;;8.10;67.80;;;;;;6276609;28;20238;-75
2023/12/16 12:56:42;;;;;;;10.00;5.53;;;8.10;68.00;;;;;;6285818;28;20240;-78
2023/12/16 12:59:45;;;;;;;13.73;6.20;;;8.00;68.50;;;;;;6285872;28;20308;-78
2023/12/16 13:03:05;;;;;;;16.93;5.73;;;8.10;67.90;;;;;;6280199;28;20243;-78
2023/12/16 13:06:09;;;;;;;12.33;6.03;;;8.20;67.60;;;;;;6276330;28;20237;-76
2023/12/16 13:09:13;;;;;;;11.87;6.63;;;8.20;67.70;;;;;;6276053;28;20233;-77
2023/12/16 13:12:17;;;;;;;10.03;5.63;;;8.20;68.00;;;;;;6277878;28;20237;-76
2023/12/16 13:15:20;;;;;;;11.40;5.60;;;8.10;68.00;;;;;;6286824;28;20233;-78
2023/12/16 13:18:23;;;;;;;12.70;6.00;;;8.10;68.10;;;;;;6279341;28;20225;-76
2023/12/16 13:21:28;;;;;;;7.27;5.53;;;8.00;68.50;;;;;;6270937;28;20238;-77
2023/12/16 13:24:33;;;;;;;15.27;6.20;;;8.00;68.40;;;;;;6287274;28;20432;-78
2023/12/16 13:27:36;;;;;;;10.73;5.30;;;8.10;68.40;;;;;;6281770;28;20275;-76
2023/12/16 13:30:40;;;;;;;10.83;5.53;;;8.10;68.30;;;;;;6277635;28;20308;-77
2023/12/16 13:33:43;;;;;;;13.20;5.97;;;8.10;68.40;;;;;;6275479;28;20292;-77
2023/12/16 13:36:47;;;;;;;8.10;5.70;;;8.10;68.50;;;;;;6275067;28;20349;-77
2023/12/16 13:39:55;;;;;;;10.10;5.10;;;8.10;68.30;;;;;;6271585;28;20838;-78
2023/12/16 13:42:58;;;;;;;8.23;5.70;;;8.00;68.50;;;;;;6279387;28;20240;-77
2023/12/16 13:46:02;;;;;;;8.40;6.23;;;8.00;68.60;;;;;;6279508;28;20282;-77
2023/12/16 13:49:07;;;;;;;18.37;8.87;;;8.00;68.70;;;;;;6274311;28;20310;-76
2023/12/16 13:52:10;;;;;;;9.73;5.80;;;8.00;68.70;;;;;;6282381;28;20229;-74
2023/12/16 13:55:16;;;;;;;9.00;5.23;;;8.00;68.90;;;;;;6276742;28;20261;-76
2023/12/16 13:58:21;;;;;;;10.43;5.80;;;8.00;68.90;;;;;;6278200;28;20816;-78
2023/12/16 14:01:25;;;;;;;11.50;5.83;;;8.00;69.10;;;;;;6279872;28;20278;-76
2023/12/16 14:04:28;;;;;;;14.23;5.60;;;8.00;69.40;;;;;;6276159;28;20241;-76
2023/12/16 14:07:31;;;;;;;13.57;5.50;;;8.00;69.20;;;;;;6279754;28;20317;-77
2023/12/16 14:10:37;;;;;;;8.70;5.50;;;8.00;69.60;;;;;;6277791;28;20741;-77
2023/12/16 14:13:41;;;;;;;9.80;5.67;;;8.00;69.40;;;;;;6273925;28;20244;-75
2023/12/16 14:16:44;;;;;;;10.57;5.57;;;8.00;69.60;;;;;;6285374;28;20243;-77
2023/12/16 14:19:47;;;;;;;13.50;5.73;;;8.00;69.80;;;;;;6288150;28;20237;-77
2023/12/16 14:22:50;;;;;;;11.93;5.77;;;8.00;70.50;;;;;;6276188;28;20221;-76
2023/12/16 14:25:55;;;;;;;10.33;5.77;;;7.90;71.20;;;;;;6286453;28;20243;-76
2023/12/16 14:28:58;;;;;;;11.70;6.30;;;7.80;71.50;;;;;;6282283;28;20225;-77
2023/12/16 14:32:01;;;;;;;11.70;6.00;;;7.80;71.80;;;;;;6281158;28;20307;-77
2023/12/16 14:35:08;;;;;;;13.43;6.07;;;7.70;72.40;;;;;;6275165;28;20676;-76
2023/12/16 14:38:12;;;;;;;11.03;5.43;;;7.60;72.90;;;;;;6275766;28;20242;-75
2023/12/16 14:41:16;;;;;;;14.33;6.20;;;7.50;73.40;;;;;;6280955;28;20230;-77
2023/12/16 14:44:19;;;;;;;12.57;7.13;;;7.50;73.90;;;;;;6279516;28;20234;-76
2023/12/16 14:47:23;;;;;;;13.40;5.83;;;7.50;74.00;;;;;;6284677;28;20241;-75
2023/12/16 14:50:26;;;;;;;11.17;5.97;;;7.50;73.90;;;;;;6283759;28;20241;-76
2023/12/16 14:53:29;;;;;;;13.63;6.47;;;7.50;74.00;;;;;;6269362;28;20277;-79
2023/12/16 14:56:34;;;;;;;8.10;5.93;;;7.50;74.30;;;;;;6279876;28;20286;-75
2023/12/16 14:59:37;;;;;;;12.90;6.13;;;7.50;74.60;;;;;;6283423;28;20241;-78
2023/12/16 15:02:40;;;;;;;12.23;6.27;;;7.50;74.70;;;;;;6276321;28;20245;-78
2023/12/16 15:05:44;;;;;;;11.87;6.57;;;7.40;75.00;;;;;;6281897;28;20237;-75
2023/12/16 15:08:48;;;;;;;6.70;6.10;;;7.40;74.90;;;;;;6277197;28;20244;-75
2023/12/16 15:11:53;;;;;;;15.93;6.50;;;7.40;75.00;;;;;;6282030;28;20430;-77
2023/12/16 15:14:56;;;;;;;11.90;5.93;;;7.50;75.10;;;;;;6275767;28;20241;-78
2023/12/16 15:17:59;;;;;;;9.83;6.30;;;7.40;75.30;;;;;;6274243;28;20233;-77
2023/12/16 15:21:03;;;;;;;17.03;6.83;;;7.40;75.20;;;;;;6277313;28;20229;-78
2023/12/16 15:24:06;;;;;;;14.10;6.50;;;7.50;75.00;;;;;;6278934;28;20234;-77
2023/12/16 15:27:11;;;;;;;11.93;6.60;;;7.40;75.00;;;;;;6281235;28;20222;-74
2023/12/16 15:30:14;;;;;;;11.30;6.23;;;7.50;74.90;;;;;;6280553;28;20245;-76
2023/12/16 15:33:17;;;;;;;12.37;6.63;;;7.50;74.50;;;;;;6274039;28;20236;-76
2023/12/16 15:36:21;;;;;;;10.47;6.83;;;7.50;74.20;;;;;;6281795;28;20376;-75
2023/12/16 15:39:29;;;;;;;17.17;7.10;;;7.50;73.80;;;;;;6282697;28;20256;-77
2023/12/16 15:42:33;;;;;;;16.60;6.93;;;7.60;73.70;;;;;;6281441;28;20242;-77
2023/12/16 15:45:37;;;;;;;14.67;6.03;;;7.60;73.60;;;;;;6281848;28;20329;-75
2023/12/16 15:48:41;;;;;;;19.73;6.27;;;7.70;73.50;;;;;;6276179;28;20767;-76
2023/12/16 15:51:45;;;;;;;11.50;5.93;;;7.70;73.60;;;;;;6261991;28;20403;-77
2023/12/16 15:54:48;;;;;;;12.47;6.63;;;7.70;73.50;;;;;;6281619;28;20383;-77